This is the latest recevied weather packets stored in our database for station/object KC1OEK-13. If no packets are shown the sender has not sent any weather packets the latest 10 day(s).
| Time | Temp. | Humidity | Pressure | Rain* | Wind** | Luminosity | Snow |
|---|---|---|---|---|---|---|---|
| 1787694505 | 23.89° C | 67% | 1016.8 hPa | 0 mm | - | 162 W/m² | - |
| 1787694204 | 25° C | 66% | 1016.8 hPa | 0 mm | - | 66 W/m² | - |
| 1787693900 | 25.56° C | 66% | 1016.6 hPa | 0 mm | - | 176 W/m² | - |
| 1787693596 | 25.56° C | 64% | 1016.6 hPa | 0 mm | - | 83 W/m² | - |
| 1787693292 | 25.56° C | 62% | 1016.7 hPa | 0 mm | - | 246 W/m² | - |
| 1787692988 | 25° C | 65% | 1016.6 hPa | 0 mm | - | 262 W/m² | - |
| 1787692682 | 25° C | 63% | 1016.6 hPa | 0 mm | - | 279 W/m² | - |
| 1787692378 | 24.44° C | 65% | 1016.6 hPa | 0 mm | - | 296 W/m² | - |
| 1787692072 | 25.56° C | 63% | 1016.6 hPa | 0 mm | - | 295 W/m² | - |
| 1787691772 | 25° C | 64% | 1016.6 hPa | 0 mm | - | 308 W/m² | - |
| 1787691470 | 25° C | 64% | 1016.4 hPa | 0 mm | - | 321 W/m² | - |
| 1787691170 | 25° C | 64% | 1016.7 hPa | 0 mm | - | 335 W/m² | - |
| 1787690865 | 24.44° C | 63% | 1016.6 hPa | 0 mm | - | 351 W/m² | - |
| 1787690565 | 24.44° C | 66% | 1016.6 hPa | 0 mm | - | 363 W/m² | - |
| 1787690260 | 24.44° C | 66% | 1016.4 hPa | 0 mm | - | 376 W/m² | - |
| 1787689958 | 25° C | 65% | 1016.6 hPa | 0 mm | - | 391 W/m² | - |
| 1787689652 | 25.56° C | 64% | 1016.4 hPa | 0 mm | - | 411 W/m² | - |
| 1787689348 | 24.44° C | 67% | 1016.7 hPa | 0 mm | - | 443 W/m² | - |
| 1787689047 | 23.33° C | 69% | 1016.8 hPa | 0 mm | - | 496 W/m² | - |
| 1787688743 | 23.89° C | 68% | 1016.8 hPa | 0 mm | - | 225 W/m² | - |
| 1787688438 | 23.33° C | 69% | 1016.6 hPa | 0 mm | - | 131 W/m² | - |
| 1787688133 | 23.89° C | 67% | 1016.7 hPa | 0 mm | - | 154 W/m² | - |
| 1787687829 | 23.89° C | 66% | 1016.3 hPa | 0 mm | - | 169 W/m² | - |
| 1787687529 | 23.89° C | 66% | 1016.3 hPa | 0 mm | - | 190 W/m² | - |
| 1787687225 | 23.89° C | 65% | 1016.4 hPa | 0 mm | - | 205 W/m² | - |
* Rain latest hour (hover to see other rain measurements)
** Current wind speed in m/s (hover to see current wind gust speed)